Time;durP1;ratioP1;P1;durP2;ratioP2;P2;SDS_P1;SDS_P2;PMS_P1;PMS_P2;Temp;Humidity;BMP_temperature;BMP_pressure;BME280_temperature;BME280_humidity;BME280_pressure;Samples;Min_cycle;Max_cycle;Signal;HPM_P1;HPM_P2
2023/10/21 00:01:46;;;;;;;;;2.75;2.00;;;;;16.72;92.77;98154.94;6184431;23;59276;-66
2023/10/21 00:04:12;;;;;;;;;5.25;4.00;;;;;16.72;92.71;98154.09;6182197;23;58683;-66
2023/10/21 00:06:38;;;;;;;;;3.00;3.00;;;;;16.71;93.10;98155.97;6185088;23;45292;-66
2023/10/21 00:09:03;;;;;;;;;3.00;3.00;;;;;16.69;93.26;98157.97;6185346;23;45628;-66
2023/10/21 00:11:28;;;;;;;;;2.75;2.75;;;;;16.73;93.36;98164.72;6184485;23;47015;-66
2023/10/21 00:13:54;;;;;;;;;2.50;2.00;;;;;16.76;93.42;98171.66;6184549;23;45225;-66
2023/10/21 00:16:19;;;;;;;;;3.00;3.00;;;;;16.71;93.26;98157.81;6183740;23;45395;-66
2023/10/21 00:18:45;;;;;;;;;1.75;1.25;;;;;16.77;93.24;98176.03;6182984;23;45381;-66
2023/10/21 00:21:10;;;;;;;;;1.00;1.00;;;;;16.76;93.12;98183.28;6185337;23;45439;-66
2023/10/21 00:23:36;;;;;;;;;0.25;0.25;;;;;16.74;92.99;98200.59;6186061;23;45950;-66
2023/10/21 00:26:02;;;;;;;;;0.00;0.00;;;;;16.80;91.81;98208.06;6186641;23;45228;-66
2023/10/21 00:28:28;;;;;;;;;0.00;0.00;;;;;16.73;91.60;98205.13;6186210;23;45468;-66
2023/10/21 00:30:53;;;;;;;;;0.00;0.00;;;;;16.65;91.11;98207.72;6186593;23;45303;-66
2023/10/21 00:33:18;;;;;;;;;0.00;0.00;;;;;16.65;91.17;98230.13;6186074;23;45324;-66
2023/10/21 00:35:47;;;;;;;;;0.00;0.00;;;;;16.59;90.27;98237.94;6185632;23;51363;-66
2023/10/21 00:38:12;;;;;;;;;1.50;0.00;;;;;16.53;90.18;98236.72;6186485;23;45241;-66
2023/10/21 00:40:38;;;;;;;;;1.50;0.00;;;;;16.55;89.64;98241.94;6159224;23;45409;-66
2023/10/21 00:43:04;;;;;;;;;0.00;0.00;;;;;16.52;89.61;98245.78;6186415;23;45296;-66
2023/10/21 00:45:30;;;;;;;;;0.00;0.00;;;;;16.51;89.74;98268.34;6185874;23;45544;-66
2023/10/21 00:47:55;;;;;;;;;0.00;0.00;;;;;16.43;89.77;98249.38;6186679;23;45316;-66
2023/10/21 00:50:21;;;;;;;;;0.00;0.00;;;;;16.48;89.64;98276.69;6186583;23;45287;-66
2023/10/21 00:52:47;;;;;;;;;0.00;0.00;;;;;16.43;89.25;98279.00;6186387;23;45300;-66
2023/10/21 00:55:13;;;;;;;;;0.75;0.00;;;;;16.41;89.40;98283.69;6185715;23;45426;-66
2023/10/21 00:57:39;;;;;;;;;0.00;0.00;;;;;16.36;89.45;98285.97;6185812;23;45341;-66
2023/10/21 01:00:10;;;;;;;;;0.00;0.00;;;;;16.35;89.14;98298.56;6185992;23;45488;-66
2023/10/21 01:02:37;;;;;;;;;0.00;0.00;;;;;16.35;89.46;98312.00;6185968;23;45351;-66
2023/10/21 01:05:02;;;;;;;;;0.00;0.00;;;;;16.36;89.20;98312.88;6184224;23;45485;-66
2023/10/21 01:07:32;;;;;;;;;0.00;0.00;;;;;16.39;89.36;98326.91;6186682;23;45243;-66
2023/10/21 01:09:57;;;;;;;;;0.00;0.00;;;;;16.33;89.58;98316.69;6186216;23;45269;-66
2023/10/21 01:12:23;;;;;;;;;0.00;0.00;;;;;16.35;89.56;98332.72;6186305;23;45294;-66
2023/10/21 01:14:48;;;;;;;;;0.00;0.00;;;;;16.35;89.18;98333.56;6184700;23;52142;-66
2023/10/21 01:17:13;;;;;;;;;0.50;0.00;;;;;16.34;88.97;98341.78;6186139;23;45242;-66
2023/10/21 01:19:38;;;;;;;;;0.00;0.00;;;;;16.32;88.95;98354.53;6186159;23;45856;-66
2023/10/21 01:22:04;;;;;;;;;0.00;0.00;;;;;16.28;88.62;98357.50;6185828;23;45170;-66
2023/10/21 01:24:29;;;;;;;;;0.00;0.00;;;;;16.25;88.68;98355.09;6185634;23;58842;-66
2023/10/21 01:26:54;;;;;;;;;0.00;0.00;;;;;16.21;88.19;98360.94;6186590;23;45395;-66
2023/10/21 01:29:20;;;;;;;;;0.00;0.00;;;;;16.19;87.73;98368.28;6185957;23;45387;-66
2023/10/21 01:31:45;;;;;;;;;0.00;0.00;;;;;16.14;87.79;98363.34;6209572;22;47485;-66
2023/10/21 01:34:11;;;;;;;;;1.00;0.00;;;;;16.17;87.86;98383.72;6185237;23;45448;-66
2023/10/21 01:36:36;;;;;;;;;0.00;0.00;;;;;16.15;87.38;98381.19;6185866;23;45300;-66
2023/10/21 01:39:01;;;;;;;;;0.00;0.00;;;;;16.13;87.25;98390.41;6185685;23;54700;-66
2023/10/21 01:41:26;;;;;;;;;0.00;0.00;;;;;16.11;87.30;98391.38;6185903;23;46131;-66
2023/10/21 01:43:52;;;;;;;;;0.00;0.00;;;;;16.09;87.63;98403.31;6185658;23;45317;-66
2023/10/21 01:46:17;;;;;;;;;0.00;0.00;;;;;16.08;87.22;98396.22;6186177;23;45482;-66
2023/10/21 01:48:42;;;;;;;;;1.00;0.00;;;;;15.99;87.07;98397.03;6185456;23;56527;-66
2023/10/21 01:51:08;;;;;;;;;1.00;0.00;;;;;16.06;87.01;98412.50;6185552;23;45856;-66
2023/10/21 01:53:33;;;;;;;;;0.00;0.00;;;;;16.09;86.90;98419.44;6183813;23;46151;-66
2023/10/21 01:56:03;;;;;;;;;0.00;0.00;;;;;16.10;86.65;98415.75;6185781;23;45308;-66
2023/10/21 01:58:31;;;;;;;;;0.00;0.00;;;;;16.04;86.67;98413.66;6185279;23;45244;-66
2023/10/21 02:00:57;;;;;;;;;0.00;0.00;;;;;16.06;86.93;98415.19;6185494;23;45818;-66
2023/10/21 02:03:23;;;;;;;;;0.00;0.00;;;;;16.06;86.78;98415.19;6185814;23;45396;-66
2023/10/21 02:05:49;;;;;;;;;0.00;0.00;;;;;16.09;87.09;98430.22;6186316;23;45261;-66
2023/10/21 02:08:14;;;;;;;;;0.00;0.00;;;;;16.09;86.59;98420.28;6186094;23;45285;-66
2023/10/21 02:10:39;;;;;;;;;0.75;0.00;;;;;16.02;86.58;98419.16;6185060;23;53925;-66
2023/10/21 02:13:04;;;;;;;;;0.00;0.00;;;;;16.08;86.70;98440.09;6185564;23;45260;-66
2023/10/21 02:15:30;;;;;;;;;0.00;0.00;;;;;16.03;86.38;98445.06;6185700;23;45162;-66
2023/10/21 02:17:55;;;;;;;;;0.00;0.00;;;;;15.97;85.91;98431.31;6185253;23;51230;-66
2023/10/21 02:20:20;;;;;;;;;0.00;0.00;;;;;16.00;85.50;98434.56;6185677;23;46193;-66
2023/10/21 02:22:46;;;;;;;;;0.00;0.00;;;;;15.97;85.32;98451.03;6184705;23;45444;-66
2023/10/21 02:25:12;;;;;;;;;0.00;0.00;;;;;15.83;85.43;98437.97;6185773;23;45423;-66
2023/10/21 02:27:39;;;;;;;;;1.00;0.00;;;;;15.88;85.31;98454.53;6183540;23;45274;-66
2023/10/21 02:30:07;;;;;;;;;0.00;0.00;;;;;15.86;85.33;98467.28;6184945;23;47384;-66
2023/10/21 02:32:32;;;;;;;;;0.50;0.00;;;;;15.85;85.05;98479.03;6185501;23;45470;-66
2023/10/21 02:34:57;;;;;;;;;0.00;0.00;;;;;15.84;84.86;98480.03;6185792;23;45350;-66
2023/10/21 02:37:23;;;;;;;;;0.00;0.00;;;;;15.77;84.74;98479.75;6185342;23;45251;-66
2023/10/21 02:39:48;;;;;;;;;1.00;0.00;;;;;15.77;84.54;98485.13;6158580;23;46795;-66
2023/10/21 02:42:14;;;;;;;;;1.25;0.00;;;;;15.77;84.47;98484.25;6185434;23;52747;-66
2023/10/21 02:44:39;;;;;;;;;0.00;0.00;;;;;15.73;84.12;98486.34;6185540;23;45667;-66
2023/10/21 02:47:04;;;;;;;;;0.00;0.00;;;;;15.61;83.91;98468.63;6185898;23;45266;-66
2023/10/21 02:49:30;;;;;;;;;0.00;0.00;;;;;15.68;83.85;98485.91;6185806;23;46107;-66
2023/10/21 02:51:55;;;;;;;;;0.25;0.00;;;;;15.65;84.05;98481.66;6185179;23;45245;-66
2023/10/21 02:54:21;;;;;;;;;0.25;0.00;;;;;15.68;84.42;98480.53;6158840;23;45258;-66
2023/10/21 02:56:46;;;;;;;;;0.00;0.00;;;;;15.67;83.74;98494.94;6185065;23;45406;-66
2023/10/21 02:59:12;;;;;;;;;0.00;0.00;;;;;15.63;83.53;98490.84;6184798;23;45208;-66
2023/10/21 03:01:37;;;;;;;;;1.75;0.00;;;;;15.68;83.83;98504.72;6185866;23;45170;-66
2023/10/21 03:04:02;;;;;;;;;0.00;0.00;;;;;15.58;84.06;98493.94;6158655;23;45231;-66
2023/10/21 03:06:28;;;;;;;;;0.50;0.00;;;;;15.69;83.79;98507.28;6185684;23;45321;-66
2023/10/21 03:08:53;;;;;;;;;0.00;0.00;;;;;15.69;83.59;98509.13;6185779;23;46077;-66
2023/10/21 03:11:18;;;;;;;;;1.00;0.00;;;;;15.63;83.29;98512.34;6183630;23;49369;-66
2023/10/21 03:13:44;;;;;;;;;0.00;0.00;;;;;15.63;83.42;98509.66;6185168;23;45190;-66
2023/10/21 03:16:13;;;;;;;;;0.00;0.00;;;;;15.67;83.10;98519.16;6185681;23;45422;-66
2023/10/21 03:18:40;;;;;;;;;0.00;0.00;;;;;15.64;83.21;98524.81;6184961;23;45420;-66
2023/10/21 03:21:06;;;;;;;;;3.00;0.00;;;;;15.58;83.26;98515.44;6184924;23;45439;-66
2023/10/21 03:23:32;;;;;;;;;1.75;0.00;;;;;15.63;83.28;98525.78;6185661;23;45403;-66
2023/10/21 03:25:58;;;;;;;;;0.00;0.00;;;;;15.61;83.11;98531.31;6185625;23;48104;-66
2023/10/21 03:28:26;;;;;;;;;0.00;0.00;;;;;15.56;83.13;98526.34;6184734;23;45459;-66
2023/10/21 03:30:54;;;;;;;;;1.25;0.00;;;;;15.62;82.92;98535.72;6185000;23;45751;-66
2023/10/21 03:33:20;;;;;;;;;0.25;0.25;;;;;15.54;83.19;98531.00;6158787;23;45332;-66
2023/10/21 03:35:58;;;;;;;;;2.00;0.00;;;;;15.51;82.85;98543.88;6185552;23;45173;-66
2023/10/21 03:38:23;;;;;;;;;1.75;0.00;;;;;15.44;83.50;98546.25;6185319;23;46489;-66
2023/10/21 03:41:08;;;;;;;;;0.25;0.00;;;;;15.48;83.32;98549.50;6185276;23;45285;-66
2023/10/21 03:43:34;;;;;;;;;0.00;0.00;;;;;15.47;83.38;98553.16;6184806;23;45224;-66
2023/10/21 03:46:04;;;;;;;;;0.00;0.00;;;;;15.45;83.48;98555.16;6183528;23;45311;-66
2023/10/21 03:48:31;;;;;;;;;0.50;0.00;;;;;15.44;83.39;98559.69;6184872;23;46031;-66
2023/10/21 03:51:05;;;;;;;;;0.00;0.00;;;;;15.43;83.39;98555.28;6185323;23;45528;-66
2023/10/21 03:53:32;;;;;;;;;0.75;0.75;;;;;15.46;83.12;98576.53;6185175;23;45320;-66
2023/10/21 03:55:58;;;;;;;;;1.25;0.00;;;;;15.46;83.17;98579.22;6184712;23;45246;-66
2023/10/21 03:58:23;;;;;;;;;0.25;0.00;;;;;15.45;83.03;98568.59;6158929;23;45504;-66
2023/10/21 04:00:49;;;;;;;;;2.25;0.00;;;;;15.44;82.74;98569.59;6185972;23;56617;-66
2023/10/21 04:03:15;;;;;;;;;0.75;0.00;;;;;15.33;82.80;98573.19;6186228;23;45308;-66
2023/10/21 04:05:42;;;;;;;;;0.00;0.00;;;;;15.33;82.53;98578.56;6159897;23;45556;-66
2023/10/21 04:08:07;;;;;;;;;2.00;1.00;;;;;15.30;82.75;98582.41;6186481;23;45389;-66
2023/10/21 04:10:32;;;;;;;;;0.00;0.00;;;;;15.26;82.68;98578.25;6186601;23;45379;-66
2023/10/21 04:12:59;;;;;;;;;1.00;0.00;;;;;15.28;82.88;98596.94;6186493;23;45326;-66
2023/10/21 04:15:25;;;;;;;;;0.00;0.00;;;;;15.22;82.54;98601.03;6159418;23;45388;-66
2023/10/21 04:17:50;;;;;;;;;0.00;0.00;;;;;15.28;82.71;98605.84;6186333;23;45244;-66
2023/10/21 04:20:18;;;;;;;;;0.25;0.00;;;;;15.24;82.93;98606.28;6186539;23;45339;-66
2023/10/21 04:22:44;;;;;;;;;0.00;0.00;;;;;15.24;82.70;98612.47;6185954;23;45260;-67
2023/10/21 04:25:13;;;;;;;;;3.00;0.00;;;;;15.12;82.83;98594.72;6186037;23;45486;-66
2023/10/21 04:27:38;;;;;;;;;0.00;0.00;;;;;15.19;82.77;98612.03;6185827;23;46444;-66
2023/10/21 04:30:04;;;;;;;;;1.00;0.00;;;;;15.23;83.07;98628.75;6186598;23;45320;-66
2023/10/21 04:32:31;;;;;;;;;0.00;0.00;;;;;15.20;82.84;98621.78;6186815;23;45316;-66
2023/10/21 04:34:57;;;;;;;;;0.25;0.00;;;;;15.12;82.76;98619.75;6186328;23;45466;-66
2023/10/21 04:37:22;;;;;;;;;0.75;0.00;;;;;15.16;83.00;98623.88;6186250;23;46341;-66
2023/10/21 04:39:48;;;;;;;;;0.00;0.00;;;;;15.16;82.82;98626.56;6186330;23;45320;-66
2023/10/21 04:42:13;;;;;;;;;3.00;1.00;;;;;15.16;83.24;98628.41;6159333;23;45273;-66
2023/10/21 04:44:38;;;;;;;;;0.00;0.00;;;;;15.10;83.07;98639.66;6185622;23;45474;-66
2023/10/21 04:47:04;;;;;;;;;0.00;0.00;;;;;15.17;83.19;98649.78;6186568;23;45829;-66
2023/10/21 04:49:30;;;;;;;;;0.00;0.00;;;;;15.14;83.16;98639.28;6185815;23;45261;-66
2023/10/21 04:51:55;;;;;;;;;0.00;0.00;;;;;15.16;83.15;98661.50;6186351;23;45609;-66
2023/10/21 04:54:21;;;;;;;;;0.50;0.00;;;;;15.08;83.07;98647.84;6185676;23;45304;-66
2023/10/21 04:56:46;;;;;;;;;0.00;0.00;;;;;15.15;83.28;98661.63;6185774;23;45695;-66
2023/10/21 04:59:11;;;;;;;;;2.00;0.50;;;;;15.12;83.22;98651.16;6186162;23;45216;-66
2023/10/21 05:01:37;;;;;;;;;0.00;0.00;;;;;15.14;83.36;98660.78;6186633;23;45301;-66
2023/10/21 05:04:02;;;;;;;;;0.00;0.00;;;;;15.12;83.14;98651.16;6185990;23;45229;-66
2023/10/21 05:06:28;;;;;;;;;2.25;0.00;;;;;15.14;82.98;98665.31;6186070;23;46239;-66
2023/10/21 05:08:54;;;;;;;;;0.00;0.00;;;;;15.15;82.83;98667.00;6185879;23;45579;-66
2023/10/21 05:11:19;;;;;;;;;1.25;0.00;;;;;15.09;83.00;98657.63;6186612;23;45300;-66
2023/10/21 05:13:44;;;;;;;;;2.00;1.00;;;;;15.10;82.84;98680.84;6185684;23;48200;-66
2023/10/21 05:16:11;;;;;;;;;0.75;0.00;;;;;15.10;82.82;98679.97;6158831;23;46993;-66
2023/10/21 05:18:38;;;;;;;;;1.00;0.00;;;;;15.08;82.99;98700.75;6184034;23;45279;-66
2023/10/21 05:21:06;;;;;;;;;0.00;0.00;;;;;15.02;83.26;98683.31;6186291;23;45465;-66
2023/10/21 05:23:32;;;;;;;;;0.00;0.00;;;;;15.01;83.08;98693.19;6185587;23;45454;-66
2023/10/21 05:25:58;;;;;;;;;4.00;1.00;;;;;15.04;83.13;98700.16;6184343;23;45325;-66
2023/10/21 05:28:24;;;;;;;;;1.00;0.00;;;;;15.05;83.19;98695.63;6185658;23;45397;-66
2023/10/21 05:30:49;;;;;;;;;1.00;1.00;;;;;14.99;82.80;98705.06;6186424;23;45338;-66
2023/10/21 05:33:14;;;;;;;;;1.00;0.00;;;;;14.94;82.83;98693.84;6185710;23;45787;-66
2023/10/21 05:35:40;;;;;;;;;1.00;1.00;;;;;14.97;83.09;98702.50;6185572;23;57340;-66
2023/10/21 05:38:06;;;;;;;;;0.00;0.00;;;;;14.96;83.02;98697.25;6186196;23;45283;-66
2023/10/21 05:40:31;;;;;;;;;0.25;0.00;;;;;14.97;82.90;98696.28;6185910;23;45315;-66
2023/10/21 05:42:57;;;;;;;;;1.00;0.00;;;;;15.01;83.29;98714.69;6185634;23;45182;-66
2023/10/21 05:45:23;;;;;;;;;1.00;0.00;;;;;15.03;83.33;98713.72;6185544;23;45166;-66
2023/10/21 05:47:49;;;;;;;;;0.00;0.00;;;;;15.06;83.08;98710.78;6159061;23;45221;-66
2023/10/21 05:50:16;;;;;;;;;4.00;0.00;;;;;15.04;82.81;98713.59;6185482;23;45315;-66
2023/10/21 05:52:42;;;;;;;;;1.00;0.25;;;;;14.98;83.01;98711.41;6185802;23;45347;-66
2023/10/21 05:55:07;;;;;;;;;4.25;3.00;;;;;15.04;82.99;98718.97;6158746;23;47488;-66
2023/10/21 05:57:33;;;;;;;;;0.00;0.00;;;;;15.06;83.17;98721.53;6157853;23;45839;-66
2023/10/21 05:59:58;;;;;;;;;2.50;1.00;;;;;15.07;82.71;98720.53;6185687;23;45482;-66
2023/10/21 06:02:23;;;;;;;;;2.25;1.00;;;;;15.03;82.52;98721.78;6185622;23;45392;-66
2023/10/21 06:04:49;;;;;;;;;1.00;1.00;;;;;15.00;82.45;98712.13;6185857;23;45399;-66
2023/10/21 06:07:14;;;;;;;;;1.75;0.50;;;;;15.04;82.53;98718.13;6185041;23;49962;-66
2023/10/21 06:09:39;;;;;;;;;0.50;0.00;;;;;15.06;82.54;98727.75;6185500;23;50264;-66
2023/10/21 06:12:05;;;;;;;;;0.00;0.00;;;;;14.99;82.65;98707.75;6159220;23;45519;-66
2023/10/21 06:14:30;;;;;;;;;5.50;0.75;;;;;15.06;82.51;98725.06;6158194;23;47948;-66
2023/10/21 06:16:56;;;;;;;;;2.00;1.00;;;;;15.00;82.48;98739.88;6185370;23;55986;-66
2023/10/21 06:19:21;;;;;;;;;0.00;0.00;;;;;15.02;82.43;98739.75;6185861;23;45301;-66
2023/10/21 06:21:46;;;;;;;;;1.25;0.00;;;;;14.99;82.40;98735.47;6186061;23;45417;-66
2023/10/21 06:24:12;;;;;;;;;1.75;0.50;;;;;14.98;82.43;98738.28;6185727;23;45335;-66
2023/10/21 06:26:38;;;;;;;;;4.50;0.25;;;;;14.96;82.29;98732.19;6158665;23;45516;-66
2023/10/21 06:29:03;;;;;;;;;0.00;0.00;;;;;14.95;82.41;98735.84;6185932;23;45428;-66
2023/10/21 06:31:28;;;;;;;;;2.25;0.50;;;;;14.97;82.59;98744.66;6186181;23;45296;-66
2023/10/21 06:33:54;;;;;;;;;0.00;0.00;;;;;14.90;82.40;98736.25;6185210;23;46749;-66
2023/10/21 06:36:19;;;;;;;;;4.50;0.50;;;;;14.98;82.48;98738.28;6159106;23;45256;-66
2023/10/21 06:38:45;;;;;;;;;2.00;2.00;;;;;14.98;82.09;98740.97;6186225;23;45381;-66
2023/10/21 06:41:11;;;;;;;;;1.00;0.75;;;;;14.93;81.73;98748.56;6186068;23;45434;-66
2023/10/21 06:43:37;;;;;;;;;3.75;1.25;;;;;14.92;82.09;98763.81;6185315;23;45384;-66
2023/10/21 06:46:03;;;;;;;;;1.00;1.00;;;;;14.97;82.19;98776.88;6184488;23;45692;-66
2023/10/21 06:48:29;;;;;;;;;1.75;0.50;;;;;14.98;82.10;98765.13;6185047;23;45434;-66
2023/10/21 06:50:55;;;;;;;;;6.00;4.75;;;;;14.97;81.73;98788.47;6185264;23;45305;-66
2023/10/21 06:53:21;;;;;;;;;1.00;1.00;;;;;14.94;81.28;98782.50;6185520;23;45255;-69
2023/10/21 06:55:46;;;;;;;;;2.00;1.00;;;;;14.89;81.33;98773.97;6181764;23;45288;-70
2023/10/21 06:58:12;;;;;;;;;1.00;1.00;;;;;14.90;81.22;98773.84;6181789;23;45790;-68
2023/10/21 07:00:38;;;;;;;;;1.00;1.00;;;;;14.82;81.43;98771.78;6183855;23;45261;-68
2023/10/21 07:03:04;;;;;;;;;2.00;0.00;;;;;14.89;80.82;98796.31;6185618;23;46107;-68
2023/10/21 07:05:29;;;;;;;;;3.00;0.50;;;;;14.85;81.28;98792.19;6208233;22;45279;-69
2023/10/21 07:07:55;;;;;;;;;2.00;1.50;;;;;14.84;81.36;98785.09;6185032;23;51476;-68
2023/10/21 07:10:20;;;;;;;;;0.50;0.00;;;;;14.91;80.93;98798.88;6185539;23;45361;-68
2023/10/21 07:12:45;;;;;;;;;1.00;1.00;;;;;14.93;81.31;98815.72;6185040;23;57942;-68
2023/10/21 07:15:11;;;;;;;;;0.75;0.75;;;;;14.94;81.05;98815.59;6185352;23;45336;-68
2023/10/21 07:17:37;;;;;;;;;1.50;1.50;;;;;14.96;80.67;98823.53;6183311;23;45324;-68
2023/10/21 07:20:05;;;;;;;;;0.50;0.50;;;;;14.95;80.81;98828.06;6185355;23;45495;-69
2023/10/21 07:22:30;;;;;;;;;1.00;1.00;;;;;14.93;80.58;98834.50;6184920;23;45817;-68
2023/10/21 07:24:57;;;;;;;;;2.00;0.75;;;;;14.88;80.50;98824.13;6184158;23;49870;-69
2023/10/21 07:27:23;;;;;;;;;0.50;0.50;;;;;14.94;80.63;98830.88;6184812;23;45275;-69
2023/10/21 07:29:48;;;;;;;;;0.00;0.00;;;;;14.89;80.70;98825.00;6183393;23;45562;-69
2023/10/21 07:32:14;;;;;;;;;1.00;1.00;;;;;14.93;81.05;98848.78;6185146;23;45510;-69
2023/10/21 07:34:39;;;;;;;;;1.00;1.00;;;;;14.93;80.80;98842.56;6184326;23;45440;-69
2023/10/21 07:37:04;;;;;;;;;1.50;1.50;;;;;14.98;80.27;98849.31;6183720;23;52776;-69
2023/10/21 07:39:30;;;;;;;;;5.00;2.00;;;;;14.95;80.64;98841.50;6185275;23;45385;-69
2023/10/21 07:41:56;;;;;;;;;4.50;1.75;;;;;15.00;80.35;98854.53;6183534;23;46379;-68
2023/10/21 07:44:21;;;;;;;;;4.00;1.00;;;;;14.95;80.57;98846.84;6183037;23;45332;-69
2023/10/21 07:46:46;;;;;;;;;1.50;1.00;;;;;15.00;80.34;98841.97;6155814;23;45416;-66
2023/10/21 07:49:12;;;;;;;;;0.75;0.75;;;;;14.99;80.33;98834.88;6182707;23;45503;-66
2023/10/21 07:51:38;;;;;;;;;2.00;2.00;;;;;15.02;80.25;98855.28;6177456;23;47407;-66
2023/10/21 07:54:03;;;;;;;;;2.00;1.00;;;;;15.07;79.90;98863.81;6180355;23;46217;-66
2023/10/21 07:56:28;;;;;;;;;1.00;1.00;;;;;15.04;79.69;98850.63;6184314;23;45310;-66
2023/10/21 07:58:54;;;;;;;;;1.00;1.00;;;;;15.02;79.94;98844.53;6182802;23;56401;-66
2023/10/21 08:01:19;;;;;;;;;1.25;0.50;;;;;14.99;80.11;98856.38;6184496;23;46000;-66
2023/10/21 08:03:44;;;;;;;;;2.25;1.00;;;;;14.95;80.00;98843.28;6157496;23;52539;-66
2023/10/21 08:06:10;;;;;;;;;1.50;1.00;;;;;15.04;79.53;98852.47;6185102;23;45275;-66
2023/10/21 08:08:35;;;;;;;;;1.00;1.00;;;;;15.05;79.91;98860.41;6184111;23;45245;-66
2023/10/21 08:11:02;;;;;;;;;0.00;0.00;;;;;14.95;79.63;98837.91;6184995;23;45273;-66
2023/10/21 08:13:29;;;;;;;;;2.75;1.00;;;;;15.06;79.64;98872.84;6182695;23;45391;-66
2023/10/21 08:15:54;;;;;;;;;4.75;1.75;;;;;15.06;80.07;98872.00;6184342;23;45261;-67
2023/10/21 08:18:19;;;;;;;;;1.00;1.00;;;;;15.10;79.55;98882.38;6182539;23;56020;-67
2023/10/21 08:20:45;;;;;;;;;3.00;0.00;;;;;15.09;79.52;98877.13;6183165;23;52064;-67
2023/10/21 08:23:10;;;;;;;;;1.00;1.00;;;;;15.10;79.48;98873.44;6184124;23;45332;-66
2023/10/21 08:25:36;;;;;;;;;5.25;2.00;;;;;15.11;79.46;98869.78;6183541;23;51574;-66
2023/10/21 08:28:03;;;;;;;;;1.50;1.00;;;;;15.08;79.36;98872.72;6184085;23;45458;-67
2023/10/21 08:30:28;;;;;;;;;3.00;2.00;;;;;15.08;79.49;98884.31;6183581;23;46119;-67
2023/10/21 08:32:53;;;;;;;;;2.00;1.00;;;;;15.09;79.72;98869.06;6184074;23;45355;-66
2023/10/21 08:35:19;;;;;;;;;4.00;1.00;;;;;15.04;79.09;98860.53;6184260;23;45309;-67
2023/10/21 08:37:44;;;;;;;;;1.00;1.00;;;;;15.08;79.28;98870.88;6184411;23;51844;-66
2023/10/21 08:40:10;;;;;;;;;2.00;1.00;;;;;15.13;79.06;98887.47;6157289;23;47009;-67
2023/10/21 08:42:36;;;;;;;;;1.75;1.75;;;;;15.18;79.10;98888.00;6184460;23;45255;-67
2023/10/21 08:45:07;;;;;;;;;5.25;1.00;;;;;15.20;79.01;98885.16;6185382;23;45404;-66
2023/10/21 08:47:35;;;;;;;;;4.50;1.00;;;;;15.19;78.74;98876.25;6185979;23;45494;-67
2023/10/21 08:50:01;;;;;;;;;2.00;1.00;;;;;15.17;78.76;98875.53;6186289;23;46533;-66
2023/10/21 08:52:27;;;;;;;;;2.00;0.25;;;;;15.17;78.77;98875.53;6185888;23;45198;-67
2023/10/21 08:54:52;;;;;;;;;2.50;2.25;;;;;15.23;78.67;98879.53;6184922;23;45269;-67
2023/10/21 08:57:18;;;;;;;;;2.75;0.75;;;;;15.20;79.18;98871.72;6185105;23;45432;-66
2023/10/21 08:59:43;;;;;;;;;2.75;1.50;;;;;15.27;79.13;98885.50;6186009;23;46474;-67
2023/10/21 09:02:09;;;;;;;;;2.00;1.00;;;;;15.30;78.81;98891.53;6184592;23;45218;-67
2023/10/21 09:04:34;;;;;;;;;1.00;1.00;;;;;15.28;78.76;98895.28;6185760;23;45640;-67
2023/10/21 09:07:00;;;;;;;;;1.00;1.00;;;;;15.28;78.50;98895.28;6185432;23;45391;-67
2023/10/21 09:09:27;;;;;;;;;5.50;1.50;;;;;15.27;78.52;98881.00;6184682;23;45766;-67
2023/10/21 09:12:23;;;;;;;;;4.00;1.00;;;;;15.27;78.23;98882.81;6185369;23;45550;-67
2023/10/21 09:14:55;;;;;;;;;0.25;0.25;;;;;15.28;78.14;98890.75;6164863;23;45337;-67
2023/10/21 09:17:32;;;;;;;;;2.00;1.75;;;;;15.30;78.34;98887.94;6185018;23;45379;-66
2023/10/21 09:19:57;;;;;;;;;2.75;0.00;;;;;15.26;78.25;98881.13;6161428;23;45353;-67
2023/10/21 09:22:25;;;;;;;;;2.00;2.00;;;;;15.35;78.47;98896.50;6181206;23;45410;-67
2023/10/21 09:25:07;;;;;;;;;1.00;1.00;;;;;15.41;78.29;98898.69;6182959;23;45461;-67
2023/10/21 09:27:33;;;;;;;;;2.75;1.75;;;;;15.42;77.96;98897.72;6207799;22;45422;-67
2023/10/21 09:29:59;;;;;;;;;2.25;0.50;;;;;15.45;77.88;98896.59;6183314;23;46919;-67
2023/10/21 09:32:28;;;;;;;;;1.00;0.00;;;;;15.43;77.95;98891.34;6183265;23;45617;-67
2023/10/21 09:35:12;;;;;;;;;2.00;1.00;;;;;15.50;77.74;98897.94;6184508;23;45697;-66
2023/10/21 09:37:37;;;;;;;;;1.75;1.00;;;;;15.47;77.78;98905.38;6182481;23;45205;-66
2023/10/21 09:40:06;;;;;;;;;2.00;1.25;;;;;15.46;77.73;98912.59;6182196;23;47338;-67
2023/10/21 09:42:42;;;;;;;;;1.25;1.25;;;;;15.55;77.88;98911.00;6155793;23;45262;-66
2023/10/21 09:45:11;;;;;;;;;2.25;1.00;;;;;15.57;77.78;98923.34;6180876;23;45710;-66
2023/10/21 09:47:39;;;;;;;;;1.75;0.00;;;;;15.62;77.60;98905.97;6183190;23;45671;-66
2023/10/21 09:50:09;;;;;;;;;3.00;1.00;;;;;15.56;77.90;98910.88;6182606;23;46092;-66
2023/10/21 09:52:51;;;;;;;;;2.75;0.00;;;;;15.67;77.67;98909.13;6181181;23;45805;-67
2023/10/21 09:55:24;;;;;;;;;4.75;2.00;;;;;15.78;77.84;98916.34;6182344;23;45623;-66
2023/10/21 09:57:54;;;;;;;;;3.25;1.00;;;;;15.82;76.99;98915.97;6184218;23;45231;-66
2023/10/21 10:00:20;;;;;;;;;4.25;1.75;;;;;15.86;77.11;98919.25;6184304;23;45301;-66
2023/10/21 10:02:49;;;;;;;;;2.25;1.00;;;;;15.86;76.65;98905.81;6185055;23;45170;-67
2023/10/21 10:05:18;;;;;;;;;1.75;1.00;;;;;15.87;76.48;98931.72;6185218;23;45273;-67
2023/10/21 10:07:45;;;;;;;;;1.50;1.00;;;;;15.87;75.59;98921.81;6184899;23;45329;-67
2023/10/21 10:10:12;;;;;;;;;2.25;0.75;;;;;15.85;75.53;98931.84;6184612;23;46327;-67
2023/10/21 10:13:01;;;;;;;;;4.00;0.75;;;;;15.85;75.48;98929.16;6183860;23;45185;-66
2023/10/21 10:15:34;;;;;;;;;2.75;1.75;;;;;15.86;75.68;98928.19;6158402;23;45457;-66
2023/10/21 10:18:02;;;;;;;;;0.75;0.75;;;;;15.87;75.89;98927.22;6181911;23;45378;-66
2023/10/21 10:20:29;;;;;;;;;2.00;1.00;;;;;15.84;75.76;98918.53;6183209;23;45523;-66
2023/10/21 10:23:07;;;;;;;;;1.50;0.25;;;;;15.91;75.26;98925.09;6183645;23;45701;-66
2023/10/21 10:25:43;;;;;;;;;0.75;0.75;;;;;15.84;75.06;98930.16;6183503;23;45700;-66
2023/10/21 10:28:09;;;;;;;;;2.50;1.00;;;;;15.90;75.25;98936.84;6183462;23;45434;-66
2023/10/21 10:30:38;;;;;;;;;0.00;0.00;;;;;15.90;75.45;98932.34;6183122;23;46210;-66
2023/10/21 10:33:07;;;;;;;;;1.75;0.00;;;;;15.92;75.40;98934.88;6182735;23;45475;-66
2023/10/21 10:35:40;;;;;;;;;3.00;0.50;;;;;15.93;74.69;98942.81;6183697;23;45612;-66
2023/10/21 10:38:25;;;;;;;;;2.75;1.50;;;;;15.95;75.11;98947.22;6183588;23;45554;-66
2023/10/21 10:40:52;;;;;;;;;4.00;1.00;;;;;15.85;75.34;98923.78;6182410;23;46938;-66
2023/10/21 10:43:18;;;;;;;;;2.00;1.00;;;;;15.95;75.01;98921.16;6181285;23;45681;-66
2023/10/21 10:45:44;;;;;;;;;1.00;1.00;;;;;15.99;75.17;98957.63;6182514;23;45348;-66
2023/10/21 10:48:10;;;;;;;;;2.00;1.00;;;;;16.01;74.92;98958.34;6183822;23;45197;-66
2023/10/21 10:50:36;;;;;;;;;3.00;0.00;;;;;16.00;74.72;98948.53;6180024;23;48106;-66
2023/10/21 10:53:22;;;;;;;;;0.00;0.00;;;;;16.01;74.84;98961.03;6183067;23;45409;-66
2023/10/21 10:55:49;;;;;;;;;2.00;1.00;;;;;16.01;74.65;98946.72;6156981;23;45381;-66
2023/10/21 10:58:18;;;;;;;;;2.00;0.00;;;;;15.97;74.38;98947.94;6181059;23;45403;-66
2023/10/21 11:00:45;;;;;;;;;0.50;0.00;;;;;16.00;74.38;98935.09;6180437;23;45506;-66
2023/10/21 11:03:21;;;;;;;;;1.00;1.00;;;;;16.07;74.27;98954.25;6178315;23;45755;-66
2023/10/21 11:05:48;;;;;;;;;2.25;0.00;;;;;16.07;73.86;98947.06;6156096;23;45324;-65
2023/10/21 11:08:15;;;;;;;;;0.75;0.75;;;;;16.08;73.60;98929.06;6183642;23;46217;-67
2023/10/21 11:10:41;;;;;;;;;5.00;2.00;;;;;16.07;73.87;98939.00;6182608;23;47204;-67
2023/10/21 11:13:06;;;;;;;;;3.00;0.25;;;;;16.16;73.83;98941.91;6181979;23;45582;-68
2023/10/21 11:15:39;;;;;;;;;1.00;1.00;;;;;16.15;73.79;98937.50;6184115;23;45390;-67
2023/10/21 11:18:04;;;;;;;;;3.75;0.75;;;;;16.14;73.29;98947.41;6182425;23;45488;-66
2023/10/21 11:20:29;;;;;;;;;1.50;0.50;;;;;16.20;73.39;98946.88;6182893;23;46632;-66
2023/10/21 11:22:55;;;;;;;;;0.00;0.00;;;;;16.15;73.24;98940.19;6179448;23;45467;-66
2023/10/21 11:25:21;;;;;;;;;1.00;1.00;;;;;16.14;73.45;98933.94;6182748;23;45245;-67
2023/10/21 11:27:46;;;;;;;;;3.75;1.50;;;;;16.24;73.68;98958.25;6182438;23;45462;-66
2023/10/21 11:30:12;;;;;;;;;0.25;0.25;;;;;16.21;73.05;98940.50;6183821;23;45352;-66
2023/10/21 11:32:37;;;;;;;;;0.00;0.00;;;;;16.26;73.05;98940.97;6181877;23;45241;-67